• Join FlightAware (Why Join?)
  • Login
  • US Flag 
01:42PM EDT


 

Airport Tracker/Info


-or-


 

Live Flight TrackerFlight Track Log ✈ EJA929 ✈ 23-Jul-2013 ✈ KPTK - KTEB

Flight Track Log - Related Links

Times and Time Zones

All times are in EDT time to prevent confusion due to time zone crossing. See the EJA929 flight status page for this flight to view local times or setup timezone preferences in your user account.

Time Position Orientation Groundspeed Altitude Reporting Facility
EDT Latitude Longitude Course Direction KTS MPH feet Rate Location/Type
10:06AM 42.6619 -83.4519 305° West 170 196 2,000  Level Cleveland Center
10:07AM 42.6858 -83.4981 305° West 209 241 3,800 1,440 Climbing Cleveland Center
10:08AM 42.7181 -83.4631 39° Northeast 271 312 4,300 2,100 Climbing Cleveland Center
10:09AM 42.7281 -83.3081 85° East 306 352 8,100 2,700 Climbing Cleveland Center
10:10AM 42.6908 -83.2047 116° Southeast 308 354 10,800 1,860 Climbing Cleveland Center
10:11AM 42.6414 -83.0839 119° Southeast 355 409 12,000 1,980 Climbing Cleveland Center
10:12AM 42.5897 -82.9664 121° Southeast 366 421 14,800 2,700 Climbing Cleveland Center
10:13AM 42.5400 -82.8489 120° Southeast 366 421 17,500 2,220 Climbing Cleveland Center
10:14AM 42.4861 -82.7258 121° Southeast 366 421 19,300 1,380 Climbing Cleveland Center
10:15AM 42.4281 -82.5944 121° Southeast 377 434 20,300 1,140 Climbing Cleveland Center
10:16AM 42.3722 -82.4494 117° Southeast 406 467 21,600 1,440 Climbing Cleveland Center
10:17AM 42.3581 -82.2831 97° East 429 494 23,200 1,620 Climbing Cleveland Center
10:18AM 42.3519 -82.1200 93° East 434 499 24,900 1,380 Climbing Cleveland Center
10:19AM 42.3394 -81.9511 96° East 439 505 26,000 1,020 Climbing Cleveland Center
10:20AM 42.3225 -81.7850 98° East 447 514 27,000 1,200 Climbing Cleveland Center
10:21AM 42.3056 -81.6081 97° East 453 521 28,500 1,500 Climbing Cleveland Center
10:22AM 42.2861 -81.4281 98° East 470 541 30,000 1,500 Climbing Cleveland Center
10:23AM 42.2686 -81.2425 97° East 484 557 31,500 1,500 Climbing Cleveland Center
10:24AM 42.2486 -81.0600 98° East 495 570 33,000 1,380 Climbing Cleveland Center
10:25AM 42.2306 -80.8917 98° East 501 577 34,300 1,380 Climbing Cleveland Center
10:26AM 42.2100 -80.6981 98° East 508 585 35,800 1,200 Climbing Cleveland Center
10:27AM 42.1892 -80.5019 98° East 521 600 36,800 600 Climbing Cleveland Center
10:28AM 42.1681 -80.2975 98° East 537 618 37,000 60 Climbing Cleveland Center
10:29AM 42.1444 -80.0986 99° East 542 624 37,000  Level Cleveland Center
10:30AM 42.1183 -79.8833 99° East 537 618 37,000  Level Cleveland Center
10:31AM 42.0961 -79.6878 99° East 537 618 37,000  Level Cleveland Center
10:32AM 42.0717 -79.4922 99° East 537 618 37,000  Level Cleveland Center
10:33AM 42.0508 -79.2969 98° East 532 612 37,000  Level Cleveland Center
10:34AM 42.0256 -79.1017 100° East 532 612 37,000  Level Cleveland Center
10:35AM 42.0019 -78.9094 99° East 526 605 37,000  Level Cleveland Center
10:36AM 41.9783 -78.7172 99° East 526 605 37,000  Level Cleveland Center
10:37AM 41.9522 -78.5311 101° East 521 600 37,000  Level Cleveland Center
10:38AM 41.9297 -78.3419 99° East 521 600 37,000  Level Cleveland Center
10:39AM 41.9053 -78.1558 100° East 521 600 37,000 -720 Level Cleveland Center
10:41AM 41.8542 -77.8136 101° East 523 602 35,000 -720 Descending New York Center
10:42AM 41.8081 -77.6389 109° East 513 590 35,000  Level New York Center
10:43AM 41.7600 -77.4614 110° East 507 583 35,000 -900 Level New York Center
10:45AM 41.7144 -77.3087 112° Southeast  Level FlightAware Approximate
10:45AM 41.6653 -77.0992 112° Southeast 507 583 32,400  Level New York Center
10:46AM 41.6164 -76.9197 110° East 512 589 30,400 -2,040 Descending New York Center
10:47AM 41.5672 -76.7406 110° East 512 589 28,400 -2,100 Descending New York Center
10:48AM 41.5158 -76.5586 111° Southeast 512 589 26,200 -1,860 Descending New York Center
10:49AM 41.4628 -76.3575 109° East 518 596 24,700 -1,140 Descending New York Center
10:50AM 41.4131 -76.1736 110° East 523 602 24,000 -480 Descending New York Center
10:51AM 41.3603 -76.0033 112° Southeast 516 594 23,800 -1,440 Descending New York Center
10:52AM 41.3114 -75.8339 111° Southeast 501 577 21,200 -2,340 Descending New York Center
10:53AM 41.2753 -75.7042 110° East 485 558 19,200 -3,060 Descending New York Center
10:54AM 41.2197 -75.5319 113° Southeast 459 528 15,200 -3,000 Descending New York Center
10:55AM 41.1714 -75.3850 114° Southeast 447 514 13,300 -2,100 Descending New York Center
10:56AM 41.1231 -75.2386 114° Southeast 426 490 11,000 -2,160 Descending New York Center
10:57AM 41.0853 -75.1289 115° Southeast 348 400 9,000 -1,920 Descending New York Center
10:58AM 41.0536 -75.0303 113° Southeast 302 348 7,200 -1,440 Descending New York Center
10:59AM 41.0339 -74.9383 106° East 283 326 6,100 -1,200 Descending New York Center
11:00AM 41.0297 -74.8200 93° East 295 339 4,800 -1,080 Descending New York Center
11:01AM 41.0308 -74.7264 89° East 289 333 4,000 -420 Descending New York Center
11:02AM 41.0303 -74.6164 90° East 278 320 4,000  Level New York Center
11:03AM 41.0292 -74.5228 91° East 273 314 4,000  Level New York Center
11:04AM 41.0286 -74.4072 90° East 273 314 4,000  Level New York Center
11:05AM 41.0292 -74.3139 90° East 279 321 4,000 -540 Level New York Center
11:06AM 41.0303 -74.2067 89° East 279 321 3,000 -1,020 Descending New York Center
11:07AM 41.0267 -74.1156 93° East 257 296 2,000 -540 Descending New York Center
11:08AM 40.9883 -74.0697 138° Southeast 194 223 2,000 -240 Level New York Center
11:09AM 40.9389 -74.0536 166° South 175 201 1,600 -600 Descending New York Center
11:10AM 40.9014 -74.0572 184° South 158 182 900 -720 Descending New York Center
11:11AM 40.8617 -74.0608 184° South 140 161 200 -720 Descending New York Center
11:13AM 40.8500 -74.0500 135° Southeast  Level FlightAware Approximate
11:20AM 40.8501 -74.0608 135° Southeast  Level Estimated
11:21AM 40.8501 -74.0608 135° Southeast  Level Estimated